Time,TemperatureF,DewpointF,PressureIn,WindDirection,WindDirectionDegrees,WindSpeedMPH,WindSpeedGustMPH,Humidity,HourlyPrecipIn,Conditions,Clouds,dailyrainin,SoftwareType,DateUTC
2013-05-11 00:02:00,59.0,45.0,30.04,North,350,22.0,29.0,58,-99.99,,,-99.99,,2013-05-11 05:02:00,
2013-05-11 00:12:00,57.0,45.0,30.06,North,350,21.0,28.0,62,-99.99,,,-99.99,,2013-05-11 05:12:00,
2013-05-11 00:21:00,57.0,45.0,30.06,North,350,21.0,28.0,62,-99.99,,,-99.99,,2013-05-11 05:21:00,
2013-05-11 00:32:00,55.0,45.0,30.07,North,350,17.0,28.0,66,-99.99,,,-99.99,,2013-05-11 05:32:00,
2013-05-11 00:42:00,55.0,45.0,30.07,North,350,17.0,28.0,66,-99.99,,,-99.99,,2013-05-11 05:42:00,
2013-05-11 00:52:00,54.0,45.0,30.08,North,350,15.0,21.0,71,-99.99,,,-99.99,,2013-05-11 05:52:00,
2013-05-11 01:02:00,54.0,45.0,30.08,North,350,15.0,21.0,71,-99.99,,,-99.99,,2013-05-11 06:02:00,
2013-05-11 01:12:00,54.0,45.0,30.08,North,350,15.0,21.0,71,-99.99,,,-99.99,,2013-05-11 06:12:00,
2013-05-11 01:21:00,54.0,45.0,30.08,North,350,15.0,21.0,71,-99.99,,,-99.99,,2013-05-11 06:21:00,
2013-05-11 01:32:00,52.0,43.0,30.10,North,350,15.0,23.0,71,-99.99,,,-99.99,,2013-05-11 06:32:00,
2013-05-11 01:42:00,52.0,43.0,30.10,North,350,15.0,23.0,71,-99.99,,,-99.99,,2013-05-11 06:42:00,
2013-05-11 01:52:00,50.0,39.0,30.11,North,350,18.0,-999.0,66,-99.99,,,-99.99,,2013-05-11 06:52:00,
2013-05-11 02:02:00,50.0,39.0,30.11,North,350,18.0,-999.0,66,-99.99,,,-99.99,,2013-05-11 07:02:00,
2013-05-11 02:11:00,48.0,36.0,30.12,North,350,16.0,21.0,61,-99.99,,,-99.99,,2013-05-11 07:11:00,
2013-05-11 02:21:00,48.0,36.0,30.12,North,350,16.0,21.0,61,-99.99,,,-99.99,,2013-05-11 07:21:00,
2013-05-11 02:32:00,48.0,36.0,30.13,North,350,17.0,23.0,61,-99.99,,,-99.99,,2013-05-11 07:32:00,
2013-05-11 02:42:00,48.0,36.0,30.13,North,350,17.0,23.0,61,-99.99,,,-99.99,,2013-05-11 07:42:00,
2013-05-11 02:52:00,48.0,36.0,30.13,North,350,9.0,-999.0,61,-99.99,,,-99.99,,2013-05-11 07:52:00,
2013-05-11 03:01:00,48.0,36.0,30.13,North,350,9.0,-999.0,61,-99.99,,,-99.99,,2013-05-11 08:01:00,
2013-05-11 03:12:00,46.0,36.0,30.14,North,350,7.0,-999.0,65,-99.99,,,-99.99,,2013-05-11 08:12:00,
2013-05-11 03:21:00,46.0,36.0,30.14,North,350,7.0,-999.0,65,-99.99,,,-99.99,,2013-05-11 08:21:00,
2013-05-11 03:32:00,46.0,37.0,30.15,NNW,340,7.0,-999.0,70,-99.99,,,-99.99,,2013-05-11 08:32:00,
2013-05-11 03:42:00,46.0,37.0,30.15,NNW,340,7.0,-999.0,70,-99.99,,,-99.99,,2013-05-11 08:42:00,
2013-05-11 03:52:00,45.0,36.0,30.16,NNW,340,5.0,-999.0,70,-99.99,,,-99.99,,2013-05-11 08:52:00,
2013-05-11 04:01:00,45.0,36.0,30.16,NNW,340,5.0,-999.0,70,-99.99,,,-99.99,,2013-05-11 09:01:00,
2013-05-11 04:11:00,45.0,34.0,30.16,NNW,340,6.0,-999.0,65,-99.99,,,-99.99,,2013-05-11 09:11:00,
2013-05-11 04:21:00,45.0,34.0,30.16,NNW,340,6.0,-999.0,65,-99.99,,,-99.99,,2013-05-11 09:21:00,
2013-05-11 04:32:00,43.0,34.0,30.17,NNW,340,7.0,-999.0,70,-99.99,,,-99.99,,2013-05-11 09:32:00,
2013-05-11 04:42:00,43.0,34.0,30.17,NNW,340,7.0,-999.0,70,-99.99,,,-99.99,,2013-05-11 09:42:00,
2013-05-11 04:52:00,43.0,30.0,30.17,NNW,340,8.0,-999.0,60,-99.99,,,-99.99,,2013-05-11 09:52:00,
2013-05-11 05:03:00,43.0,30.0,30.17,NNW,340,8.0,-999.0,60,-99.99,,,-99.99,,2013-05-11 10:03:00,
2013-05-11 05:12:00,43.0,30.0,30.17,NNW,330,9.0,-999.0,60,-99.99,,,-99.99,,2013-05-11 10:12:00,
2013-05-11 05:22:00,43.0,30.0,30.17,NNW,330,9.0,-999.0,60,-99.99,,,-99.99,,2013-05-11 10:22:00,
2013-05-11 05:33:00,43.0,30.0,30.18,NW,320,6.0,-999.0,60,-99.99,,,-99.99,,2013-05-11 10:33:00,
2013-05-11 05:42:00,43.0,30.0,30.18,NW,320,6.0,-999.0,60,-99.99,,,-99.99,,2013-05-11 10:42:00,
2013-05-11 05:52:00,41.0,30.0,30.17,NW,310,6.0,-999.0,65,-99.99,,,-99.99,,2013-05-11 10:52:00,
2013-05-11 06:02:00,41.0,30.0,30.17,NW,310,6.0,-999.0,65,-99.99,,,-99.99,,2013-05-11 11:02:00,
2013-05-11 06:11:00,41.0,28.0,30.18,NW,320,12.0,-999.0,60,-99.99,,,-99.99,,2013-05-11 11:11:00,
2013-05-11 06:21:00,41.0,28.0,30.18,NW,320,12.0,-999.0,60,-99.99,,,-99.99,,2013-05-11 11:21:00,
2013-05-11 06:32:00,43.0,28.0,30.18,NW,310,9.0,-999.0,56,-99.99,,,-99.99,,2013-05-11 11:32:00,
2013-05-11 06:42:00,43.0,28.0,30.18,NW,310,9.0,-999.0,56,-99.99,,,-99.99,,2013-05-11 11:42:00,
2013-05-11 06:51:00,39.0,28.0,30.19,NNW,330,10.0,-999.0,64,-99.99,,,-99.99,,2013-05-11 11:51:00,
2013-05-11 07:01:00,39.0,28.0,30.19,NNW,330,10.0,-999.0,64,-99.99,,,-99.99,,2013-05-11 12:01:00,
2013-05-11 07:11:00,39.0,28.0,30.20,NNW,330,7.0,-999.0,64,-99.99,,,-99.99,,2013-05-11 12:11:00,
2013-05-11 07:22:00,39.0,28.0,30.20,NNW,330,7.0,-999.0,64,-99.99,,,-99.99,,2013-05-11 12:22:00,
2013-05-11 07:32:00,43.0,28.0,30.21,NW,320,10.0,15.0,56,-99.99,,,-99.99,,2013-05-11 12:32:00,
2013-05-11 07:42:00,43.0,28.0,30.21,NW,320,10.0,15.0,56,-99.99,,,-99.99,,2013-05-11 12:42:00,
2013-05-11 07:51:00,43.0,28.0,30.22,NNW,340,10.0,20.0,56,-99.99,,,-99.99,,2013-05-11 12:51:00,
2013-05-11 08:01:00,43.0,28.0,30.22,NNW,340,10.0,20.0,56,-99.99,,,-99.99,,2013-05-11 13:01:00,
2013-05-11 08:11:00,43.0,28.0,30.23,NNW,340,18.0,23.0,56,-99.99,,,-99.99,,2013-05-11 13:11:00,
2013-05-11 08:21:00,43.0,28.0,30.23,NNW,340,18.0,23.0,56,-99.99,,,-99.99,,2013-05-11 13:21:00,
2013-05-11 08:32:00,45.0,28.0,30.24,NNW,340,20.0,25.0,52,-99.99,,,-99.99,,2013-05-11 13:32:00,
2013-05-11 08:42:00,45.0,28.0,30.24,NNW,340,20.0,25.0,52,-99.99,,,-99.99,,2013-05-11 13:42:00,
2013-05-11 08:52:00,45.0,30.0,30.24,NNW,340,16.0,21.0,56,-99.99,,,-99.99,,2013-05-11 13:52:00,
2013-05-11 09:02:00,45.0,30.0,30.24,NNW,340,16.0,21.0,56,-99.99,,,-99.99,,2013-05-11 14:02:00,
2013-05-11 09:11:00,46.0,30.0,30.24,NNW,340,16.0,23.0,52,-99.99,,,-99.99,,2013-05-11 14:11:00,
2013-05-11 09:21:00,46.0,30.0,30.24,NNW,340,16.0,23.0,52,-99.99,,,-99.99,,2013-05-11 14:21:00,
2013-05-11 09:32:00,46.0,30.0,30.25,NNW,330,20.0,25.0,52,-99.99,,,-99.99,,2013-05-11 14:32:00,
2013-05-11 09:42:00,46.0,30.0,30.25,NNW,330,20.0,25.0,52,-99.99,,,-99.99,,2013-05-11 14:42:00,
2013-05-11 09:51:00,46.0,32.0,30.25,North,350,21.0,27.0,57,-99.99,,,-99.99,,2013-05-11 14:51:00,
2013-05-11 10:01:00,46.0,32.0,30.25,North,350,21.0,27.0,57,-99.99,,,-99.99,,2013-05-11 15:01:00,
2013-05-11 10:11:00,46.0,30.0,30.26,NNW,330,20.0,28.0,52,-99.99,,,-99.99,,2013-05-11 15:11:00,
2013-05-11 10:21:00,46.0,30.0,30.26,NNW,330,20.0,28.0,52,-99.99,,,-99.99,,2013-05-11 15:21:00,
2013-05-11 10:32:00,48.0,25.0,30.26,NNW,340,24.0,33.0,39,-99.99,,,-99.99,,2013-05-11 15:32:00,
2013-05-11 10:43:00,48.0,25.0,30.26,NNW,340,24.0,33.0,39,-99.99,,,-99.99,,2013-05-11 15:43:00,
2013-05-11 10:53:00,46.0,25.0,30.27,NNW,340,21.0,30.0,42,-99.99,,,-99.99,,2013-05-11 15:53:00,
2013-05-11 11:02:00,46.0,25.0,30.27,NNW,340,21.0,30.0,42,-99.99,,,-99.99,,2013-05-11 16:02:00,
2013-05-11 11:12:00,48.0,27.0,30.27,NNW,340,21.0,27.0,42,-99.99,,,-99.99,,2013-05-11 16:12:00,
2013-05-11 11:23:00,48.0,27.0,30.27,NNW,340,21.0,27.0,42,-99.99,,,-99.99,,2013-05-11 16:23:00,
2013-05-11 11:33:00,48.0,27.0,30.27,NNW,330,20.0,29.0,42,-99.99,,,-99.99,,2013-05-11 16:33:00,
2013-05-11 11:42:00,48.0,27.0,30.27,NNW,330,20.0,29.0,42,-99.99,,,-99.99,,2013-05-11 16:42:00,
2013-05-11 11:52:00,48.0,25.0,30.28,NNW,330,21.0,28.0,39,-99.99,,,-99.99,,2013-05-11 16:52:00,
2013-05-11 12:02:00,48.0,25.0,30.28,NNW,330,21.0,28.0,39,-99.99,,,-99.99,,2013-05-11 17:02:00,
2013-05-11 12:12:00,48.0,25.0,30.28,NNW,330,15.0,27.0,39,-99.99,,,-99.99,,2013-05-11 17:12:00,
2013-05-11 12:22:00,48.0,25.0,30.28,NNW,330,15.0,27.0,39,-99.99,,,-99.99,,2013-05-11 17:22:00,
2013-05-11 12:32:00,50.0,25.0,30.28,NNW,330,21.0,32.0,37,-99.99,,,-99.99,,2013-05-11 17:32:00,
2013-05-11 12:42:00,50.0,25.0,30.28,NNW,330,21.0,32.0,37,-99.99,,,-99.99,,2013-05-11 17:42:00,
2013-05-11 12:52:00,50.0,27.0,30.28,NNW,330,18.0,28.0,39,-99.99,,,-99.99,,2013-05-11 17:52:00,
2013-05-11 13:01:00,50.0,27.0,30.28,NNW,330,18.0,28.0,39,-99.99,,,-99.99,,2013-05-11 18:01:00,
2013-05-11 13:11:00,50.0,25.0,30.28,NNW,330,20.0,27.0,37,-99.99,,,-99.99,,2013-05-11 18:11:00,
2013-05-11 13:21:00,50.0,25.0,30.28,NNW,330,20.0,27.0,37,-99.99,,,-99.99,,2013-05-11 18:21:00,
2013-05-11 13:32:00,50.0,25.0,30.28,NNW,330,21.0,27.0,37,-99.99,,,-99.99,,2013-05-11 18:32:00,
2013-05-11 13:42:00,50.0,25.0,30.28,NNW,330,21.0,27.0,37,-99.99,,,-99.99,,2013-05-11 18:42:00,
2013-05-11 13:51:00,52.0,28.0,30.28,North,350,24.0,30.0,40,-99.99,,,-99.99,,2013-05-11 18:51:00,
2013-05-11 14:02:00,52.0,28.0,30.28,North,350,24.0,30.0,40,-99.99,,,-99.99,,2013-05-11 19:02:00,
2013-05-11 14:11:00,52.0,25.0,30.27,NNW,330,21.0,25.0,34,-99.99,,,-99.99,,2013-05-11 19:11:00,
2013-05-11 14:21:00,52.0,25.0,30.27,NNW,330,21.0,25.0,34,-99.99,,,-99.99,,2013-05-11 19:21:00,
2013-05-11 14:32:00,52.0,25.0,30.27,NNW,340,17.0,31.0,34,-99.99,,,-99.99,,2013-05-11 19:32:00,
2013-05-11 14:42:00,52.0,25.0,30.27,NNW,340,17.0,31.0,34,-99.99,,,-99.99,,2013-05-11 19:42:00,
2013-05-11 14:52:00,52.0,25.0,30.27,NW,320,18.0,25.0,34,-99.99,,,-99.99,,2013-05-11 19:52:00,
2013-05-11 15:02:00,52.0,25.0,30.27,NW,320,18.0,25.0,34,-99.99,,,-99.99,,2013-05-11 20:02:00,
2013-05-11 15:12:00,52.0,25.0,30.27,NW,320,18.0,25.0,34,-99.99,,,-99.99,,2013-05-11 20:12:00,
2013-05-11 15:22:00,52.0,25.0,30.27,NW,320,18.0,25.0,34,-99.99,,,-99.99,,2013-05-11 20:22:00,
2013-05-11 15:32:00,54.0,25.0,30.26,NNW,330,24.0,33.0,32,-99.99,,,-99.99,,2013-05-11 20:32:00,
2013-05-11 15:42:00,54.0,25.0,30.26,NNW,330,24.0,33.0,32,-99.99,,,-99.99,,2013-05-11 20:42:00,
2013-05-11 15:52:00,54.0,21.0,30.26,NNW,330,20.0,29.0,27,-99.99,,,-99.99,,2013-05-11 20:52:00,
2013-05-11 16:02:00,54.0,21.0,30.26,NNW,330,20.0,29.0,27,-99.99,,,-99.99,,2013-05-11 21:02:00,
2013-05-11 16:11:00,54.0,19.0,30.25,NNW,330,20.0,29.0,25,-99.99,,,-99.99,,2013-05-11 21:11:00,
2013-05-11 16:21:00,54.0,19.0,30.25,NNW,330,20.0,29.0,25,-99.99,,,-99.99,,2013-05-11 21:21:00,
2013-05-11 16:33:00,54.0,19.0,30.24,NW,310,13.0,23.0,25,-99.99,,,-99.99,,2013-05-11 21:33:00,
2013-05-11 16:43:00,54.0,19.0,30.24,NW,310,13.0,23.0,25,-99.99,,,-99.99,,2013-05-11 21:43:00,
2013-05-11 16:52:00,54.0,19.0,30.24,NNW,340,18.0,27.0,25,-99.99,,,-99.99,,2013-05-11 21:52:00,
2013-05-11 17:02:00,54.0,19.0,30.24,NNW,340,18.0,27.0,25,-99.99,,,-99.99,,2013-05-11 22:02:00,
2013-05-11 17:13:00,54.0,18.0,30.23,NNW,330,21.0,29.0,23,-99.99,,,-99.99,,2013-05-11 22:13:00,
2013-05-11 17:23:00,54.0,18.0,30.23,NNW,330,21.0,29.0,23,-99.99,,,-99.99,,2013-05-11 22:23:00,
2013-05-11 17:33:00,54.0,18.0,30.23,NNW,330,20.0,25.0,23,-99.99,,,-99.99,,2013-05-11 22:33:00,
2013-05-11 17:42:00,54.0,18.0,30.23,NNW,330,20.0,25.0,23,-99.99,,,-99.99,,2013-05-11 22:42:00,
2013-05-11 17:52:00,54.0,18.0,30.24,NNW,340,15.0,27.0,23,-99.99,,,-99.99,,2013-05-11 22:52:00,
2013-05-11 18:02:00,54.0,18.0,30.24,NNW,340,15.0,27.0,23,-99.99,,,-99.99,,2013-05-11 23:02:00,
2013-05-11 18:12:00,54.0,14.0,30.24,NNW,330,20.0,28.0,20,-99.99,,,-99.99,,2013-05-11 23:12:00,
2013-05-11 18:22:00,54.0,14.0,30.24,NNW,330,20.0,28.0,20,-99.99,,,-99.99,,2013-05-11 23:22:00,
2013-05-11 18:32:00,54.0,16.0,30.24,NNW,330,16.0,25.0,22,-99.99,,,-99.99,,2013-05-11 23:32:00,
2013-05-11 18:42:00,54.0,16.0,30.24,NNW,330,16.0,25.0,22,-99.99,,,-99.99,,2013-05-11 23:42:00,
2013-05-11 18:52:00,54.0,18.0,30.23,North,350,17.0,24.0,23,-99.99,,,-99.99,,2013-05-11 23:52:00,
2013-05-11 19:01:00,54.0,18.0,30.23,North,350,17.0,24.0,23,-99.99,,,-99.99,,2013-05-12 00:01:00,
2013-05-11 19:11:00,54.0,18.0,30.23,North,350,17.0,24.0,23,-99.99,,,-99.99,,2013-05-12 00:11:00,
2013-05-11 19:21:00,54.0,18.0,30.23,North,350,17.0,24.0,23,-99.99,,,-99.99,,2013-05-12 00:21:00,
2013-05-11 19:32:00,54.0,18.0,30.23,NNW,340,13.0,22.0,23,-99.99,,,-99.99,,2013-05-12 00:32:00,
2013-05-11 19:42:00,54.0,18.0,30.23,NNW,340,13.0,22.0,23,-99.99,,,-99.99,,2013-05-12 00:42:00,
2013-05-11 19:52:00,52.0,16.0,30.22,NNW,340,14.0,22.0,23,-99.99,,,-99.99,,2013-05-12 00:52:00,
2013-05-11 20:01:00,52.0,16.0,30.22,NNW,340,14.0,22.0,23,-99.99,,,-99.99,,2013-05-12 01:01:00,
2013-05-11 20:11:00,52.0,16.0,30.22,NNW,340,14.0,22.0,23,-99.99,,,-99.99,,2013-05-12 01:11:00,
2013-05-11 20:21:00,52.0,16.0,30.22,NNW,340,14.0,22.0,23,-99.99,,,-99.99,,2013-05-12 01:21:00,
2013-05-11 20:32:00,52.0,16.0,30.22,NNW,340,13.0,-999.0,23,-99.99,,,-99.99,,2013-05-12 01:32:00,
2013-05-11 20:42:00,52.0,16.0,30.22,NNW,340,13.0,-999.0,23,-99.99,,,-99.99,,2013-05-12 01:42:00,
2013-05-11 20:52:00,50.0,16.0,30.23,NNW,340,10.0,-999.0,25,-99.99,,,-99.99,,2013-05-12 01:52:00,
2013-05-11 21:01:00,50.0,16.0,30.23,NNW,340,10.0,-999.0,25,-99.99,,,-99.99,,2013-05-12 02:01:00,
2013-05-11 21:11:00,48.0,16.0,30.23,NNW,340,8.0,-999.0,27,-99.99,,,-99.99,,2013-05-12 02:11:00,
2013-05-11 21:22:00,48.0,16.0,30.23,NNW,340,8.0,-999.0,27,-99.99,,,-99.99,,2013-05-12 02:22:00,
2013-05-11 21:32:00,48.0,16.0,30.23,NNW,330,7.0,-999.0,27,-99.99,,,-99.99,,2013-05-12 02:32:00,
2013-05-11 21:42:00,48.0,16.0,30.23,NNW,330,7.0,-999.0,27,-99.99,,,-99.99,,2013-05-12 02:42:00,
2013-05-11 21:52:00,46.0,18.0,30.24,NNW,340,5.0,-999.0,31,-99.99,,,-99.99,,2013-05-12 02:52:00,
2013-05-11 22:01:00,46.0,18.0,30.24,NNW,340,5.0,-999.0,31,-99.99,,,-99.99,,2013-05-12 03:01:00,
2013-05-11 22:11:00,45.0,18.0,30.24,North,0,0.0,-999.0,33,-99.99,,,-99.99,,2013-05-12 03:11:00,
2013-05-11 22:22:00,45.0,18.0,30.24,North,0,0.0,-999.0,33,-99.99,,,-99.99,,2013-05-12 03:22:00,
2013-05-11 22:33:00,45.0,19.0,30.24,North,0,0.0,-999.0,36,-99.99,,,-99.99,,2013-05-12 03:33:00,
2013-05-11 22:43:00,45.0,19.0,30.24,North,0,0.0,-999.0,36,-99.99,,,-99.99,,2013-05-12 03:43:00,
2013-05-11 22:53:00,41.0,19.0,30.24,North,0,0.0,-999.0,41,-99.99,,,-99.99,,2013-05-12 03:53:00,
2013-05-11 23:02:00,-999.0,-99.9,30.24,North,0,0.0,-999.0,41,-99.99,,,-99.99,,2013-05-12 04:02:00,
2013-05-11 23:12:00,41.0,19.0,30.24,North,0,0.0,-999.0,41,-99.99,,,-99.99,,2013-05-12 04:12:00,
2013-05-11 23:22:00,41.0,19.0,30.24,North,0,0.0,-999.0,41,-99.99,,,-99.99,,2013-05-12 04:22:00,
2013-05-11 23:33:00,39.0,19.0,30.24,North,0,0.0,-999.0,44,-99.99,,,-99.99,,2013-05-12 04:33:00,
2013-05-11 23:43:00,39.0,19.0,30.24,North,0,0.0,-999.0,44,-99.99,,,-99.99,,2013-05-12 04:43:00,
2013-05-11 23:52:00,39.0,19.0,30.24,North,0,0.0,-999.0,44,-99.99,,,-99.99,,2013-05-12 04:52:00,